Time,TemperatureF,DewpointF,PressureIn,WindDirection,WindDirectionDegrees,WindSpeedMPH,WindSpeedGustMPH,Humidity,HourlyPrecipIn,Conditions,Clouds,dailyrainin,SoftwareType,DateUTC
2013-04-20 00:03:00,35.0,32.0,29.74,West,264,6.0,10.0,89,0.00,,,0.80,,2013-04-20 04:03:00,
2013-04-20 00:12:00,35.0,32.0,29.74,West,264,6.0,10.0,89,0.00,,,0.80,,2013-04-20 04:12:00,
2013-04-20 00:23:00,35.0,32.0,29.74,WSW,254,8.0,13.0,87,0.00,,,0.80,,2013-04-20 04:23:00,
2013-04-20 00:33:00,34.0,31.0,29.75,West,277,10.0,17.0,88,0.00,,,0.71,,2013-04-20 04:33:00,
2013-04-20 00:42:00,34.0,31.0,29.75,West,277,10.0,17.0,88,0.00,,,0.71,,2013-04-20 04:42:00,
2013-04-20 00:52:00,32.0,31.0,29.75,WNW,286,6.0,14.0,95,0.00,,,0.71,,2013-04-20 04:52:00,
2013-04-20 01:02:00,32.0,31.0,29.76,WSW,243,5.0,13.0,95,0.00,,,0.71,,2013-04-20 05:02:00,
2013-04-20 01:12:00,32.0,31.0,29.76,WSW,243,5.0,13.0,95,0.00,,,0.71,,2013-04-20 05:12:00,
2013-04-20 01:22:00,31.0,30.0,29.77,West,281,6.0,13.0,95,0.00,,,0.71,,2013-04-20 05:22:00,
2013-04-20 01:32:00,31.0,30.0,29.77,SW,231,4.0,10.0,95,0.00,,,0.57,,2013-04-20 05:32:00,
2013-04-20 01:43:00,31.0,30.0,29.77,SW,231,4.0,10.0,95,0.00,,,0.57,,2013-04-20 05:43:00,
2013-04-20 01:52:00,31.0,29.0,29.77,West,277,3.0,7.0,94,0.00,,,0.57,,2013-04-20 05:52:00,
2013-04-20 02:02:00,32.0,30.0,29.77,WSW,247,3.0,8.0,93,0.00,,,0.57,,2013-04-20 06:02:00,
2013-04-20 02:12:00,32.0,30.0,29.77,WSW,247,3.0,8.0,93,0.00,,,0.57,,2013-04-20 06:12:00,
2013-04-20 02:21:00,32.0,30.0,29.78,SW,231,4.0,8.0,91,0.00,,,0.57,,2013-04-20 06:21:00,
2013-04-20 02:32:00,32.0,29.0,29.79,WNW,283,6.0,10.0,89,0.00,,,0.46,,2013-04-20 06:32:00,
2013-04-20 02:42:00,32.0,29.0,29.79,WNW,283,6.0,10.0,89,0.00,,,0.46,,2013-04-20 06:42:00,
2013-04-20 02:52:00,33.0,30.0,29.79,West,271,4.0,10.0,89,0.00,,,0.46,,2013-04-20 06:52:00,
2013-04-20 03:02:00,33.0,30.0,29.79,West,278,4.0,9.0,88,0.00,,,0.46,,2013-04-20 07:02:00,
2013-04-20 03:11:00,33.0,30.0,29.79,West,278,4.0,9.0,88,0.00,,,0.46,,2013-04-20 07:11:00,
2013-04-20 03:22:00,33.0,29.0,29.79,West,274,7.0,13.0,84,0.00,,,0.46,,2013-04-20 07:22:00,
2013-04-20 03:32:00,33.0,28.0,29.80,West,262,4.0,11.0,83,0.00,,,0.37,,2013-04-20 07:32:00,
2013-04-20 03:42:00,33.0,28.0,29.81,West,270,4.0,10.0,82,0.00,,,0.37,,2013-04-20 07:42:00,
2013-04-20 03:52:00,33.0,28.0,29.81,West,270,4.0,10.0,82,0.00,,,0.37,,2013-04-20 07:52:00,
2013-04-20 04:02:00,32.0,27.0,29.82,West,267,6.0,15.0,81,0.00,,,0.37,,2013-04-20 08:02:00,
2013-04-20 04:11:00,32.0,27.0,29.82,West,267,6.0,15.0,81,0.00,,,0.37,,2013-04-20 08:11:00,
2013-04-20 04:21:00,32.0,26.0,29.83,WNW,283,7.0,16.0,77,0.00,,,0.37,,2013-04-20 08:21:00,
2013-04-20 04:32:00,32.0,26.0,29.84,West,281,5.0,9.0,79,0.00,,,0.35,,2013-04-20 08:32:00,
2013-04-20 04:42:00,32.0,26.0,29.84,West,281,5.0,9.0,79,0.00,,,0.35,,2013-04-20 08:42:00,
2013-04-20 04:52:00,32.0,26.0,29.85,WNW,297,4.0,10.0,79,0.00,,,0.35,,2013-04-20 08:52:00,
2013-04-20 05:02:00,32.0,26.0,29.85,WNW,293,7.0,11.0,77,0.00,,,0.35,,2013-04-20 09:02:00,
2013-04-20 05:12:00,32.0,26.0,29.85,WNW,293,7.0,11.0,77,0.00,,,0.35,,2013-04-20 09:12:00,
2013-04-20 05:21:00,31.0,25.0,29.86,SW,224,3.0,6.0,79,0.00,,,0.35,,2013-04-20 09:21:00,
2013-04-20 05:33:00,31.0,24.0,29.87,WSW,256,6.0,11.0,76,0.00,,,0.21,,2013-04-20 09:33:00,
2013-04-20 05:43:00,31.0,24.0,29.87,WSW,256,6.0,11.0,76,0.00,,,0.21,,2013-04-20 09:43:00,
2013-04-20 05:53:00,31.0,23.0,29.88,WNW,287,6.0,14.0,73,0.00,,,0.21,,2013-04-20 09:53:00,
2013-04-20 06:03:00,31.0,24.0,29.89,West,280,4.0,15.0,74,0.00,,,0.21,,2013-04-20 10:03:00,
2013-04-20 06:13:00,31.0,24.0,29.89,West,280,4.0,15.0,74,0.00,,,0.21,,2013-04-20 10:13:00,
2013-04-20 06:23:00,31.0,23.0,29.89,WNW,300,6.0,13.0,72,0.00,,,0.21,,2013-04-20 10:23:00,
2013-04-20 06:33:00,31.0,22.0,29.91,WNW,302,7.0,22.0,70,0.00,,,0.07,,2013-04-20 10:33:00,
2013-04-20 06:42:00,31.0,22.0,29.91,WNW,302,7.0,22.0,70,0.00,,,0.07,,2013-04-20 10:42:00,
2013-04-20 06:52:00,30.0,22.0,29.92,NW,304,7.0,12.0,71,0.00,,,0.07,,2013-04-20 10:52:00,
2013-04-20 07:02:00,30.0,21.0,29.93,WNW,286,6.0,14.0,70,0.00,,,0.07,,2013-04-20 11:02:00,
2013-04-20 07:12:00,30.0,21.0,29.93,WNW,286,6.0,14.0,70,0.00,,,0.07,,2013-04-20 11:12:00,
2013-04-20 07:23:00,29.0,20.0,29.94,WNW,290,9.0,17.0,68,0.00,,,0.07,,2013-04-20 11:23:00,
2013-04-20 07:32:00,29.0,20.0,29.96,WNW,297,5.0,12.0,68,0.00,,,0.02,,2013-04-20 11:32:00,
2013-04-20 07:42:00,29.0,20.0,29.96,WNW,297,5.0,12.0,68,0.00,,,0.02,,2013-04-20 11:42:00,
2013-04-20 07:52:00,29.0,19.0,29.97,WNW,285,5.0,13.0,66,0.00,,,0.02,,2013-04-20 11:52:00,
2013-04-20 08:02:00,28.0,17.0,29.98,West,279,5.0,16.0,64,0.00,,,0.02,,2013-04-20 12:02:00,
2013-04-20 08:11:00,28.0,17.0,29.98,West,279,5.0,16.0,64,0.00,,,0.02,,2013-04-20 12:11:00,
2013-04-20 08:22:00,29.0,18.0,29.99,NW,307,6.0,11.0,64,0.00,,,0.02,,2013-04-20 12:22:00,
2013-04-20 08:32:00,29.0,18.0,30.01,WNW,283,8.0,17.0,64,0.00,,,0.00,,2013-04-20 12:32:00,
2013-04-20 08:42:00,29.0,18.0,30.01,WNW,283,8.0,17.0,64,0.00,,,0.00,,2013-04-20 12:42:00,
2013-04-20 08:52:00,29.0,18.0,30.02,NW,312,9.0,14.0,64,0.00,,,0.00,,2013-04-20 12:52:00,
2013-04-20 09:02:00,29.0,19.0,30.03,NW,316,4.0,10.0,65,0.00,,,0.00,,2013-04-20 13:02:00,
2013-04-20 09:11:00,29.0,19.0,30.03,NW,316,4.0,10.0,65,0.00,,,0.00,,2013-04-20 13:11:00,
2013-04-20 09:21:00,29.0,19.0,30.04,WNW,299,8.0,18.0,65,0.00,,,0.00,,2013-04-20 13:21:00,
2013-04-20 09:32:00,29.0,18.0,30.05,WNW,288,7.0,15.0,64,0.00,,,0.00,,2013-04-20 13:32:00,
2013-04-20 09:42:00,29.0,18.0,30.05,WNW,288,7.0,15.0,64,0.00,,,0.00,,2013-04-20 13:42:00,
2013-04-20 09:52:00,29.0,19.0,30.06,WNW,283,5.0,15.0,65,0.00,,,0.00,,2013-04-20 13:52:00,
2013-04-20 10:02:00,30.0,20.0,30.07,NW,312,5.0,12.0,66,0.00,,,0.00,,2013-04-20 14:02:00,
2013-04-20 10:11:00,30.0,20.0,30.07,NW,312,5.0,12.0,66,0.00,,,0.00,,2013-04-20 14:11:00,
2013-04-20 10:21:00,30.0,20.0,30.08,West,273,4.0,11.0,67,0.00,,,0.00,,2013-04-20 14:21:00,
2013-04-20 10:32:00,30.0,20.0,30.08,WNW,294,6.0,15.0,65,0.00,,,0.00,,2013-04-20 14:32:00,
2013-04-20 10:42:00,30.0,20.0,30.08,WNW,294,6.0,15.0,65,0.00,,,0.00,,2013-04-20 14:42:00,
2013-04-20 10:51:00,31.0,21.0,30.09,WNW,283,5.0,12.0,65,0.00,,,0.00,,2013-04-20 14:51:00,
2013-04-20 11:02:00,31.0,21.0,30.10,WNW,290,6.0,13.0,65,0.00,,,0.00,,2013-04-20 15:02:00,
2013-04-20 11:12:00,31.0,21.0,30.10,WNW,290,6.0,13.0,65,0.00,,,0.00,,2013-04-20 15:12:00,
2013-04-20 11:21:00,32.0,22.0,30.11,NNE,22,3.0,14.0,66,0.00,,,0.00,,2013-04-20 15:21:00,
2013-04-20 11:33:00,32.0,20.0,30.11,WNW,285,5.0,12.0,62,0.00,,,0.00,,2013-04-20 15:33:00,
2013-04-20 11:43:00,32.0,20.0,30.11,WNW,285,5.0,12.0,62,0.00,,,0.00,,2013-04-20 15:43:00,
2013-04-20 11:53:00,32.0,21.0,30.12,West,276,9.0,14.0,64,0.00,,,0.00,,2013-04-20 15:53:00,
2013-04-20 12:03:00,32.0,21.0,30.14,West,267,6.0,15.0,64,0.00,,,0.00,,2013-04-20 16:03:00,
2013-04-20 12:12:00,32.0,20.0,30.14,WNW,295,6.0,13.0,61,0.00,,,0.00,,2013-04-20 16:12:00,
2013-04-20 12:23:00,32.0,20.0,30.14,WNW,295,6.0,13.0,61,0.00,,,0.00,,2013-04-20 16:23:00,
2013-04-20 12:33:00,33.0,21.0,30.15,WNW,287,4.0,13.0,61,0.00,,,0.00,,2013-04-20 16:33:00,
2013-04-20 12:42:00,33.0,21.0,30.15,WNW,287,4.0,13.0,61,0.00,,,0.00,,2013-04-20 16:42:00,
2013-04-20 12:52:00,33.0,21.0,30.16,WNW,285,9.0,15.0,62,0.00,,,0.00,,2013-04-20 16:52:00,
2013-04-20 13:02:00,34.0,21.0,30.16,WNW,291,6.0,12.0,59,0.00,,,0.00,,2013-04-20 17:02:00,
2013-04-20 13:12:00,34.0,21.0,30.16,WNW,291,6.0,12.0,59,0.00,,,0.00,,2013-04-20 17:12:00,
2013-04-20 13:23:00,33.0,20.0,30.16,West,278,9.0,17.0,58,0.00,,,0.00,,2013-04-20 17:23:00,
2013-04-20 13:33:00,34.0,22.0,30.17,NW,309,5.0,11.0,61,0.00,,,0.00,,2013-04-20 17:33:00,
2013-04-20 13:42:00,34.0,22.0,30.17,NW,309,5.0,11.0,61,0.00,,,0.00,,2013-04-20 17:42:00,
2013-04-20 13:52:00,34.0,22.0,30.17,NNW,329,5.0,10.0,62,0.00,,,0.00,,2013-04-20 17:52:00,
2013-04-20 14:02:00,34.0,21.0,30.18,WNW,287,6.0,13.0,59,0.00,,,0.00,,2013-04-20 18:02:00,
2013-04-20 14:13:00,35.0,23.0,30.19,West,271,6.0,12.0,60,0.00,,,0.00,,2013-04-20 18:13:00,
2013-04-20 14:22:00,35.0,23.0,30.19,West,271,6.0,12.0,60,0.00,,,0.00,,2013-04-20 18:22:00,
2013-04-20 14:32:00,35.0,23.0,30.19,WNW,302,3.0,10.0,61,0.00,,,0.00,,2013-04-20 18:32:00,
2013-04-20 14:42:00,35.0,23.0,30.19,WNW,302,3.0,10.0,61,0.00,,,0.00,,2013-04-20 18:42:00,
2013-04-20 14:52:00,35.0,23.0,30.20,West,260,6.0,9.0,62,0.00,,,0.00,,2013-04-20 18:52:00,
2013-04-20 15:02:00,35.0,24.0,30.21,WSW,257,6.0,9.0,63,0.00,,,0.00,,2013-04-20 19:02:00,
2013-04-20 15:11:00,35.0,23.0,30.22,West,273,6.0,14.0,61,0.00,,,0.00,,2013-04-20 19:11:00,
2013-04-20 15:21:00,35.0,23.0,30.22,West,273,6.0,14.0,61,0.00,,,0.00,,2013-04-20 19:21:00,
2013-04-20 15:32:00,35.0,22.0,30.22,NW,307,5.0,10.0,59,0.00,,,0.00,,2013-04-20 19:32:00,
2013-04-20 15:42:00,35.0,24.0,30.23,West,269,5.0,13.0,63,0.00,,,0.00,,2013-04-20 19:42:00,
2013-04-20 15:52:00,35.0,24.0,30.23,West,269,5.0,13.0,63,0.00,,,0.00,,2013-04-20 19:52:00,
2013-04-20 16:02:00,36.0,24.0,30.24,WSW,255,5.0,10.0,61,0.00,,,0.00,,2013-04-20 20:02:00,
2013-04-20 16:12:00,36.0,23.0,30.24,WNW,292,6.0,10.0,59,0.00,,,0.00,,2013-04-20 20:12:00,
2013-04-20 16:22:00,36.0,23.0,30.24,WNW,292,6.0,10.0,59,0.00,,,0.00,,2013-04-20 20:22:00,
2013-04-20 16:32:00,36.0,25.0,30.24,West,272,6.0,14.0,63,0.00,,,0.00,,2013-04-20 20:32:00,
2013-04-20 16:42:00,36.0,25.0,30.24,West,272,6.0,14.0,63,0.00,,,0.00,,2013-04-20 20:42:00,
2013-04-20 16:52:00,36.0,23.0,30.24,WSW,247,6.0,15.0,59,0.00,,,0.00,,2013-04-20 20:52:00,
2013-04-20 17:02:00,37.0,24.0,30.25,NNW,335,5.0,9.0,59,0.00,,,0.00,,2013-04-20 21:02:00,
2013-04-20 17:12:00,37.0,24.0,30.25,NNW,335,5.0,9.0,59,0.00,,,0.00,,2013-04-20 21:12:00,
2013-04-20 17:22:00,37.0,23.0,30.26,West,277,6.0,15.0,56,0.00,,,0.00,,2013-04-20 21:22:00,
2013-04-20 17:33:00,36.0,23.0,30.26,West,274,6.0,12.0,58,0.00,,,0.00,,2013-04-20 21:33:00,
2013-04-20 17:43:00,36.0,23.0,30.26,West,274,6.0,12.0,58,0.00,,,0.00,,2013-04-20 21:43:00,
2013-04-20 17:52:00,37.0,23.0,30.27,NNW,338,6.0,12.0,57,0.00,,,0.00,,2013-04-20 21:52:00,
2013-04-20 18:03:00,37.0,24.0,30.28,WNW,299,2.0,11.0,59,0.00,,,0.00,,2013-04-20 22:03:00,
2013-04-20 18:12:00,37.0,24.0,30.28,WNW,299,2.0,11.0,59,0.00,,,0.00,,2013-04-20 22:12:00,
2013-04-20 18:23:00,36.0,22.0,30.28,West,276,5.0,14.0,57,0.00,,,0.00,,2013-04-20 22:23:00,
2013-04-20 18:32:00,37.0,22.0,30.29,WNW,287,6.0,11.0,54,0.00,,,0.00,,2013-04-20 22:32:00,
2013-04-20 18:42:00,37.0,22.0,30.29,WNW,287,6.0,11.0,54,0.00,,,0.00,,2013-04-20 22:42:00,
2013-04-20 18:52:00,37.0,22.0,30.29,NW,305,5.0,10.0,54,0.00,,,0.00,,2013-04-20 22:52:00,
2013-04-20 19:02:00,36.0,23.0,30.30,WNW,293,4.0,12.0,58,0.00,,,0.00,,2013-04-20 23:02:00,
2013-04-20 19:12:00,36.0,23.0,30.30,WNW,293,4.0,12.0,58,0.00,,,0.00,,2013-04-20 23:12:00,
2013-04-20 19:22:00,36.0,22.0,30.31,WNW,288,3.0,10.0,56,0.00,,,0.00,,2013-04-20 23:22:00,
2013-04-20 19:32:00,36.0,21.0,30.31,West,262,6.0,11.0,54,0.00,,,0.00,,2013-04-20 23:32:00,
2013-04-20 19:42:00,36.0,21.0,30.31,West,262,6.0,11.0,54,0.00,,,0.00,,2013-04-20 23:42:00,
2013-04-20 19:52:00,37.0,21.0,30.32,West,274,4.0,9.0,52,0.00,,,0.00,,2013-04-20 23:52:00,
2013-04-20 20:01:00,36.0,19.0,30.32,NW,304,6.0,11.0,50,0.00,,,0.00,,2013-04-21 00:01:00,
2013-04-20 20:12:00,36.0,19.0,30.32,NW,304,6.0,11.0,50,0.00,,,0.00,,2013-04-21 00:12:00,
2013-04-20 20:22:00,36.0,19.0,30.33,NNW,328,4.0,8.0,49,0.00,,,0.00,,2013-04-21 00:22:00,
2013-04-20 20:32:00,35.0,20.0,30.34,NW,316,3.0,6.0,55,0.00,,,0.00,,2013-04-21 00:32:00,
2013-04-20 20:42:00,35.0,20.0,30.34,NW,316,3.0,6.0,55,0.00,,,0.00,,2013-04-21 00:42:00,
2013-04-20 20:52:00,34.0,20.0,30.35,West,267,2.0,5.0,56,0.00,,,0.00,,2013-04-21 00:52:00,
2013-04-20 21:01:00,34.0,21.0,30.35,West,280,1.0,3.0,58,0.00,,,0.00,,2013-04-21 01:01:00,
2013-04-20 21:12:00,34.0,21.0,30.35,West,280,1.0,3.0,58,0.00,,,0.00,,2013-04-21 01:12:00,
2013-04-20 21:21:00,34.0,22.0,30.36,WNW,294,1.0,3.0,60,0.00,,,0.00,,2013-04-21 01:21:00,
2013-04-20 21:32:00,33.0,21.0,30.36,WNW,297,0.0,1.0,62,0.00,,,0.00,,2013-04-21 01:32:00,
2013-04-20 21:42:00,33.0,21.0,30.36,WNW,297,0.0,1.0,62,0.00,,,0.00,,2013-04-21 01:42:00,
2013-04-20 21:52:00,32.0,21.0,30.37,WNW,295,0.0,0.0,63,0.00,,,0.00,,2013-04-21 01:52:00,
2013-04-20 22:02:00,32.0,22.0,30.38,WNW,295,0.0,0.0,65,0.00,,,0.00,,2013-04-21 02:02:00,
2013-04-20 22:11:00,32.0,22.0,30.38,WNW,295,0.0,0.0,65,0.00,,,0.00,,2013-04-21 02:11:00,
2013-04-20 22:22:00,31.0,22.0,30.39,WNW,295,0.0,0.0,68,0.00,,,0.00,,2013-04-21 02:22:00,
2013-04-20 22:32:00,30.0,22.0,30.40,WNW,295,0.0,0.0,71,0.00,,,0.00,,2013-04-21 02:32:00,
2013-04-20 22:42:00,30.0,22.0,30.40,WNW,295,0.0,0.0,71,0.00,,,0.00,,2013-04-21 02:42:00,
2013-04-20 22:52:00,29.0,22.0,30.40,WNW,295,0.0,0.0,76,0.00,,,0.00,,2013-04-21 02:52:00,
2013-04-20 23:01:00,29.0,23.0,30.41,WNW,295,0.0,0.0,79,0.00,,,0.00,,2013-04-21 03:01:00,
2013-04-20 23:11:00,29.0,23.0,30.41,WNW,295,0.0,0.0,79,0.00,,,0.00,,2013-04-21 03:11:00,
2013-04-20 23:22:00,28.0,23.0,30.41,WNW,295,0.0,0.0,82,0.00,,,0.00,,2013-04-21 03:22:00,
2013-04-20 23:33:00,28.0,24.0,30.42,WNW,295,0.0,0.0,83,0.00,,,0.00,,2013-04-21 03:33:00,
2013-04-20 23:42:00,28.0,24.0,30.42,WNW,295,0.0,0.0,83,0.00,,,0.00,,2013-04-21 03:42:00,
2013-04-20 23:52:00,27.0,23.0,30.42,WNW,295,0.0,0.0,84,0.00,,,0.00,,2013-04-21 03:52:00,